Time;durP1;ratioP1;P1;durP2;ratioP2;P2;SDS_P1;SDS_P2;PMS_P1;PMS_P2;Temp;Humidity;BMP_temperature;BMP_pressure;BME280_temperature;BME280_humidity;BME280_pressure;Samples;Min_cycle;Max_cycle;Signal;HPM_P1;HPM_P2
2022/07/24 00:02:13;;;;;;;9.60;5.80;;;20.20;99.90;;;;;;5114431;28;20528;-47
2022/07/24 00:04:39;;;;;;;5.80;5.15;;;20.30;99.90;;;;;;5114950;28;20172;-45
2022/07/24 00:07:05;;;;;;;6.95;5.05;;;20.20;99.90;;;;;;5115139;28;20165;-49
2022/07/24 00:09:30;;;;;;;7.45;5.75;;;20.20;99.90;;;;;;5114575;28;20534;-44
2022/07/24 00:11:56;;;;;;;6.65;4.70;;;20.20;99.90;;;;;;5114646;28;20208;-46
2022/07/24 00:14:22;;;;;;;6.13;4.70;;;20.20;99.90;;;;;;5114589;28;20157;-44
2022/07/24 00:16:47;;;;;;;6.38;5.07;;;20.10;99.90;;;;;;5114580;28;20593;-48
2022/07/24 00:19:13;;;;;;;7.93;4.25;;;20.20;99.90;;;;;;5114485;28;20165;-53
2022/07/24 00:21:39;;;;;;;6.07;5.47;;;20.10;99.90;;;;;;5114518;28;20165;-45
2022/07/24 00:24:04;;;;;;;4.57;4.18;;;20.20;99.90;;;;;;5114793;28;20164;-48
2022/07/24 00:26:30;;;;;;;5.78;4.47;;;20.10;99.90;;;;;;5114304;28;20302;-48
2022/07/24 00:28:56;;;;;;;6.05;5.45;;;20.00;99.90;;;;;;5114350;28;20164;-45
2022/07/24 00:31:22;;;;;;;7.68;5.55;;;20.00;99.90;;;;;;5114501;28;20204;-52
2022/07/24 00:33:48;;;;;;;6.60;5.25;;;19.90;99.90;;;;;;5114272;28;20172;-50
2022/07/24 00:36:15;;;;;;;6.30;5.28;;;19.90;99.90;;;;;;5114196;28;20643;-54
2022/07/24 00:38:40;;;;;;;7.00;4.07;;;19.90;99.90;;;;;;5114141;28;20172;-45
2022/07/24 00:41:06;;;;;;;7.60;5.97;;;20.00;99.90;;;;;;5114678;28;20164;-53
2022/07/24 00:43:32;;;;;;;6.22;5.53;;;20.00;99.90;;;;;;5114309;28;20534;-53
2022/07/24 00:45:57;;;;;;;5.65;4.75;;;20.00;99.90;;;;;;5113916;28;20715;-45
2022/07/24 00:48:23;;;;;;;4.95;4.45;;;20.00;99.90;;;;;;5113971;28;20195;-48
2022/07/24 00:50:49;;;;;;;5.50;4.95;;;20.00;99.90;;;;;;5113800;28;20165;-49
2022/07/24 00:53:15;;;;;;;5.20;4.43;;;19.90;99.90;;;;;;5113912;28;20513;-47
2022/07/24 00:55:41;;;;;;;5.82;5.28;;;19.90;99.90;;;;;;5113818;28;20624;-45
2022/07/24 00:58:07;;;;;;;5.70;4.47;;;19.90;99.90;;;;;;5114161;28;20165;-49
2022/07/24 01:00:33;;;;;;;5.72;5.13;;;19.90;99.90;;;;;;5114356;28;20184;-47
2022/07/24 01:02:59;;;;;;;6.97;4.93;;;19.80;99.90;;;;;;5113731;28;20179;-46
2022/07/24 01:05:25;;;;;;;5.40;4.80;;;19.90;99.90;;;;;;5113648;28;20634;-51
2022/07/24 01:07:50;;;;;;;5.88;5.00;;;19.80;99.90;;;;;;5113850;28;20195;-47
2022/07/24 01:10:16;;;;;;;6.75;5.32;;;19.80;99.90;;;;;;5113397;28;20255;-47
2022/07/24 01:12:42;;;;;;;6.47;4.82;;;19.70;99.90;;;;;;5113434;28;20208;-53
2022/07/24 01:15:10;;;;;;;5.50;4.60;;;19.70;99.90;;;;;;5113505;28;20255;-45
2022/07/24 01:17:39;;;;;;;8.68;5.43;;;19.70;99.90;;;;;;5113793;28;20180;-46
2022/07/24 01:20:06;;;;;;;6.03;4.68;;;19.70;99.90;;;;;;5114028;28;20165;-48
2022/07/24 01:22:32;;;;;;;9.45;5.50;;;19.60;99.90;;;;;;5113317;28;20169;-45
2022/07/24 01:24:58;;;;;;;7.97;5.80;;;19.70;99.90;;;;;;5113190;28;20244;-47
2022/07/24 01:27:24;;;;;;;8.05;5.57;;;19.60;99.90;;;;;;5113421;28;20173;-46
2022/07/24 01:29:51;;;;;;;6.80;5.75;;;19.70;99.90;;;;;;5113127;28;20165;-45
2022/07/24 01:32:16;;;;;;;4.82;4.43;;;19.70;99.90;;;;;;5113102;28;20208;-45
2022/07/24 01:34:42;;;;;;;5.43;4.93;;;19.60;99.90;;;;;;5113204;28;20172;-47
2022/07/24 01:37:08;;;;;;;7.95;5.30;;;19.70;99.90;;;;;;5113401;28;20177;-43
2022/07/24 01:39:33;;;;;;;6.18;5.45;;;19.60;99.90;;;;;;5113375;28;20579;-45
2022/07/24 01:41:59;;;;;;;7.07;5.20;;;19.60;99.90;;;;;;5112952;28;20180;-45
2022/07/24 01:44:25;;;;;;;6.65;5.63;;;19.60;99.90;;;;;;5112990;28;20165;-44
2022/07/24 01:46:50;;;;;;;7.30;5.55;;;19.60;99.90;;;;;;5112820;28;20624;-45
2022/07/24 01:49:16;;;;;;;10.25;6.43;;;19.60;99.90;;;;;;5112857;28;20165;-44
2022/07/24 01:51:42;;;;;;;9.15;5.80;;;19.50;99.90;;;;;;5112771;28;20562;-44
2022/07/24 01:54:07;;;;;;;9.30;6.70;;;19.50;99.90;;;;;;5113132;28;20208;-44
2022/07/24 01:56:33;;;;;;;9.63;6.28;;;19.40;99.90;;;;;;5113034;28;20255;-44
2022/07/24 01:58:59;;;;;;;9.52;7.00;;;19.40;99.90;;;;;;5112198;28;20628;-45
2022/07/24 02:01:26;;;;;;;9.63;7.20;;;19.40;99.90;;;;;;5112586;28;20651;-48
2022/07/24 02:03:51;;;;;;;8.95;6.72;;;19.40;99.90;;;;;;5112851;28;20221;-47
2022/07/24 02:06:17;;;;;;;9.13;7.20;;;19.40;99.90;;;;;;5112616;28;20255;-44
2022/07/24 02:08:42;;;;;;;8.45;7.22;;;19.30;99.90;;;;;;5112552;28;20163;-44
2022/07/24 02:11:08;;;;;;;8.82;7.50;;;19.20;99.90;;;;;;5112422;28;20746;-44
2022/07/24 02:13:34;;;;;;;8.10;7.05;;;19.20;99.90;;;;;;5112874;28;20173;-46
2022/07/24 02:15:59;;;;;;;10.88;7.07;;;19.10;99.90;;;;;;5112433;28;20165;-44
2022/07/24 02:18:25;;;;;;;8.68;7.78;;;19.20;99.90;;;;;;5112530;28;20647;-55
2022/07/24 02:20:51;;;;;;;11.32;8.05;;;19.20;99.90;;;;;;5112420;28;20161;-56
2022/07/24 02:23:19;;;;;;;7.38;6.53;;;19.20;99.90;;;;;;5112660;28;20172;-55
2022/07/24 02:25:49;;;;;;;8.55;7.47;;;19.10;99.90;;;;;;5112360;28;20159;-49
2022/07/24 02:28:15;;;;;;;9.65;6.68;;;19.10;99.90;;;;;;5112486;28;20168;-56
2022/07/24 02:30:41;;;;;;;9.50;7.80;;;19.10;99.90;;;;;;5112154;28;20524;-54
2022/07/24 02:33:07;;;;;;;13.43;6.88;;;19.10;99.90;;;;;;5112503;28;20255;-44
2022/07/24 02:35:33;;;;;;;10.18;7.22;;;19.10;99.90;;;;;;5112546;28;20208;-55
2022/07/24 02:37:58;;;;;;;14.73;7.05;;;19.10;99.90;;;;;;5093993;28;20277;-54
2022/07/24 02:40:24;;;;;;;8.95;6.60;;;19.00;99.90;;;;;;5112077;28;20205;-55
2022/07/24 02:42:49;;;;;;;7.85;6.88;;;19.00;99.90;;;;;;5112053;28;20225;-55
2022/07/24 02:45:15;;;;;;;8.82;6.65;;;19.00;99.90;;;;;;5112150;28;20176;-52
2022/07/24 02:47:53;;;;;;;9.90;6.97;;;19.00;99.90;;;;;;5112134;28;20193;-55
2022/07/24 02:50:21;;;;;;;8.55;7.18;;;19.00;99.90;;;;;;5112117;28;20240;-51
2022/07/24 02:52:48;;;;;;;7.47;6.75;;;19.00;99.90;;;;;;5112091;28;20200;-55
2022/07/24 02:55:13;;;;;;;9.27;7.18;;;19.00;99.90;;;;;;5112134;28;20172;-54
2022/07/24 02:57:39;;;;;;;11.13;6.78;;;19.00;99.90;;;;;;5111950;28;20180;-54
2022/07/24 03:00:09;;;;;;;8.45;6.60;;;18.90;99.90;;;;;;5112403;28;20185;-53
2022/07/24 03:02:35;;;;;;;9.13;7.00;;;18.90;99.90;;;;;;5112494;28;20157;-54
2022/07/24 03:05:02;;;;;;;9.77;7.57;;;18.90;99.90;;;;;;5112005;28;20214;-55
2022/07/24 03:07:28;;;;;;;9.32;6.68;;;18.80;99.90;;;;;;5112214;28;20173;-55
2022/07/24 03:09:53;;;;;;;7.63;6.88;;;18.80;99.90;;;;;;5113080;28;20208;-50
2022/07/24 03:12:19;;;;;;;9.40;6.80;;;18.80;99.90;;;;;;5115837;28;20207;-53
2022/07/24 03:14:45;;;;;;;9.18;6.88;;;18.80;99.90;;;;;;5115887;28;20619;-54
2022/07/24 03:17:10;;;;;;;8.50;6.60;;;18.80;99.90;;;;;;5115874;28;20180;-55
2022/07/24 03:19:36;;;;;;;7.32;6.60;;;18.80;99.90;;;;;;5116112;28;20165;-50
2022/07/24 03:22:02;;;;;;;10.00;7.65;;;18.70;99.90;;;;;;5115643;28;20203;-55
2022/07/24 03:24:27;;;;;;;7.70;6.80;;;18.70;99.90;;;;;;5115603;28;20164;-54
2022/07/24 03:26:53;;;;;;;8.90;6.55;;;18.80;99.90;;;;;;5115588;28;20168;-52
2022/07/24 03:29:19;;;;;;;10.63;6.70;;;18.70;99.90;;;;;;5115540;28;20163;-51
2022/07/24 03:31:44;;;;;;;7.70;6.90;;;18.60;99.90;;;;;;5115436;28;20309;-53
2022/07/24 03:34:10;;;;;;;7.97;7.15;;;18.60;99.90;;;;;;5115380;28;20249;-52
2022/07/24 03:36:36;;;;;;;8.70;6.07;;;18.60;99.90;;;;;;5115752;28;20169;-50
2022/07/24 03:39:02;;;;;;;10.07;6.75;;;18.50;99.90;;;;;;5115254;28;20231;-52
2022/07/24 03:41:28;;;;;;;8.57;7.15;;;18.60;99.90;;;;;;5115532;28;20175;-51
2022/07/24 03:43:53;;;;;;;9.75;6.80;;;18.60;99.90;;;;;;5115017;28;20169;-49
2022/07/24 03:46:19;;;;;;;11.27;7.20;;;18.60;99.90;;;;;;5115429;28;20191;-48
2022/07/24 03:48:44;;;;;;;9.00;7.07;;;18.50;99.90;;;;;;5115251;28;20169;-47
2022/07/24 03:51:10;;;;;;;7.43;6.10;;;18.50;99.90;;;;;;5114990;28;20196;-48
2022/07/24 03:53:36;;;;;;;8.60;7.50;;;18.40;99.90;;;;;;5115640;28;20165;-47
2022/07/24 03:56:06;;;;;;;7.95;7.07;;;19.30;99.90;;;;;;5115600;28;20241;-55
2022/07/24 03:58:32;;;;;;;9.98;6.75;;;18.60;99.90;;;;;;5115539;28;20573;-55
2022/07/24 04:00:57;;;;;;;8.95;6.88;;;18.60;99.90;;;;;;5113946;28;20651;-54
2022/07/24 04:03:23;;;;;;;6.78;6.18;;;18.60;99.90;;;;;;5114921;28;20180;-53
2022/07/24 04:05:49;;;;;;;8.25;6.95;;;18.70;99.90;;;;;;5114815;28;20515;-56
2022/07/24 04:08:14;;;;;;;9.50;7.35;;;18.70;99.90;;;;;;5114802;28;20226;-52
2022/07/24 04:10:40;;;;;;;9.13;7.45;;;18.80;99.90;;;;;;5114633;28;20272;-54
2022/07/24 04:13:05;;;;;;;9.10;7.25;;;18.80;99.90;;;;;;5114956;28;20274;-44
2022/07/24 04:15:31;;;;;;;7.93;6.88;;;18.90;99.90;;;;;;5114586;28;20203;-43
2022/07/24 04:17:57;;;;;;;7.43;6.43;;;18.90;99.90;;;;;;5114545;28;20164;-43
2022/07/24 04:20:22;;;;;;;14.88;6.88;;;18.90;99.90;;;;;;5114078;28;20172;-44
2022/07/24 04:22:48;;;;;;;8.13;6.60;;;18.90;99.90;;;;;;5114473;28;20169;-45
2022/07/24 04:25:13;;;;;;;10.18;6.93;;;18.90;99.90;;;;;;5114463;28;20168;-44
2022/07/24 04:27:39;;;;;;;9.75;7.10;;;19.00;99.90;;;;;;5114518;28;20513;-44
2022/07/24 04:30:05;;;;;;;9.20;6.97;;;19.00;99.90;;;;;;5114593;28;20169;-46
2022/07/24 04:32:31;;;;;;;8.57;7.38;;;19.10;99.90;;;;;;5114196;28;20201;-43
2022/07/24 04:34:57;;;;;;;10.57;7.25;;;19.10;99.90;;;;;;5114216;28;20190;-43
2022/07/24 04:37:23;;;;;;;8.15;7.35;;;19.20;99.90;;;;;;5114189;28;20168;-43
2022/07/24 04:39:48;;;;;;;9.90;7.68;;;19.20;99.90;;;;;;5114492;28;20212;-44
2022/07/24 04:42:14;;;;;;;11.32;7.18;;;19.20;99.90;;;;;;5114197;28;20628;-45
2022/07/24 04:44:40;;;;;;;9.05;7.38;;;19.30;99.90;;;;;;5114171;28;20529;-45
2022/07/24 04:47:06;;;;;;;9.02;6.90;;;19.20;99.90;;;;;;5114382;28;20173;-43
2022/07/24 04:49:31;;;;;;;11.60;7.78;;;19.30;99.90;;;;;;5114375;28;20160;-44
2022/07/24 04:51:57;;;;;;;12.35;7.43;;;19.30;99.90;;;;;;5113842;28;20210;-45
2022/07/24 04:54:22;;;;;;;8.65;7.07;;;19.50;99.90;;;;;;5113866;28;20250;-44
2022/07/24 04:56:48;;;;;;;8.30;7.28;;;19.60;99.90;;;;;;5114011;28;20612;-44
2022/07/24 04:59:14;;;;;;;10.60;6.78;;;19.70;99.90;;;;;;5113839;28;20169;-45
2022/07/24 05:01:39;;;;;;;8.10;7.18;;;19.70;99.90;;;;;;5113808;28;20175;-48
2022/07/24 05:04:05;;;;;;;9.40;7.57;;;19.80;99.90;;;;;;5114253;28;20168;-44
2022/07/24 05:06:30;;;;;;;9.13;6.70;;;20.00;99.90;;;;;;5113544;28;20579;-45
2022/07/24 05:08:56;;;;;;;7.95;6.93;;;20.10;99.90;;;;;;5113508;28;20184;-44
2022/07/24 05:11:22;;;;;;;7.53;6.82;;;20.10;99.90;;;;;;5113348;28;20718;-44
2022/07/24 05:13:47;;;;;;;9.07;7.22;;;20.10;99.90;;;;;;5113508;28;20260;-46
2022/07/24 05:16:13;;;;;;;8.95;7.45;;;20.30;99.90;;;;;;5113427;28;20165;-45
2022/07/24 05:18:38;;;;;;;9.55;6.53;;;20.30;99.90;;;;;;5113555;28;20175;-43
2022/07/24 05:21:04;;;;;;;9.63;7.00;;;20.30;99.90;;;;;;5113981;28;20508;-44
2022/07/24 05:23:30;;;;;;;7.57;6.57;;;20.30;99.90;;;;;;5113307;28;20157;-44
2022/07/24 05:25:55;;;;;;;8.32;6.38;;;20.40;99.90;;;;;;5113601;28;20175;-44
2022/07/24 05:28:21;;;;;;;10.05;6.90;;;20.50;99.90;;;;;;5113283;28;20193;-43
2022/07/24 05:30:46;;;;;;;9.80;7.05;;;20.50;99.90;;;;;;5113187;28;20184;-43
2022/07/24 05:33:12;;;;;;;9.80;6.72;;;20.70;99.90;;;;;;5112389;28;20530;-44
2022/07/24 05:35:38;;;;;;;8.75;6.80;;;20.80;99.90;;;;;;5113017;28;20173;-43
2022/07/24 05:38:03;;;;;;;11.13;6.43;;;20.70;99.90;;;;;;5113364;28;20165;-44
2022/07/24 05:40:29;;;;;;;9.85;7.28;;;20.80;99.90;;;;;;5112562;28;20168;-43
2022/07/24 05:42:54;;;;;;;8.77;7.30;;;20.80;99.90;;;;;;5112772;28;20192;-43
2022/07/24 05:45:20;;;;;;;7.93;6.85;;;20.80;99.90;;;;;;5112905;28;20635;-44
2022/07/24 05:47:46;;;;;;;11.90;7.38;;;20.90;99.90;;;;;;5112865;28;20175;-44
2022/07/24 05:50:14;;;;;;;8.82;6.78;;;20.90;99.90;;;;;;5112964;28;20243;-55
2022/07/24 05:52:41;;;;;;;10.52;7.10;;;20.90;99.90;;;;;;5112811;28;20200;-55
2022/07/24 05:55:07;;;;;;;8.88;7.80;;;20.90;99.90;;;;;;5112796;28;20180;-54
2022/07/24 05:57:33;;;;;;;8.98;6.47;;;20.90;99.90;;;;;;5113070;28;20190;-54
2022/07/24 05:59:59;;;;;;;10.88;7.88;;;20.90;99.90;;;;;;5112701;28;20243;-55
2022/07/24 06:02:24;;;;;;;8.93;8.02;;;20.80;99.90;;;;;;5112691;28;20164;-55
2022/07/24 06:04:50;;;;;;;11.10;7.80;;;20.90;99.90;;;;;;5112568;28;20502;-54
2022/07/24 06:07:16;;;;;;;9.68;8.18;;;20.90;99.90;;;;;;5112547;28;20213;-44
2022/07/24 06:09:41;;;;;;;8.63;6.72;;;21.00;99.90;;;;;;5112395;28;20221;-54
2022/07/24 06:12:07;;;;;;;7.50;6.57;;;20.90;99.90;;;;;;5112447;28;20215;-47
2022/07/24 06:14:33;;;;;;;8.30;6.50;;;21.00;99.90;;;;;;5112787;28;20168;-53
2022/07/24 06:16:59;;;;;;;8.48;6.65;;;21.20;99.90;;;;;;5112449;28;20175;-50
2022/07/24 06:19:25;;;;;;;7.47;6.72;;;21.20;99.90;;;;;;5112404;28;20165;-54
2022/07/24 06:21:51;;;;;;;7.72;6.35;;;21.20;99.90;;;;;;5112445;28;20203;-54
2022/07/24 06:24:17;;;;;;;8.13;6.10;;;21.30;99.90;;;;;;5112429;28;20192;-51
2022/07/24 06:26:43;;;;;;;6.80;6.20;;;21.50;99.90;;;;;;5112330;28;20627;-44
2022/07/24 06:29:09;;;;;;;11.70;6.75;;;21.50;99.90;;;;;;5112359;28;20582;-44
2022/07/24 06:31:35;;;;;;;8.65;6.93;;;21.60;99.90;;;;;;5112595;28;20204;-47
2022/07/24 06:34:00;;;;;;;9.60;6.68;;;21.60;99.90;;;;;;5112469;28;20620;-43
2022/07/24 06:36:27;;;;;;;6.90;6.28;;;21.80;99.90;;;;;;5112229;28;20620;-45
2022/07/24 06:38:52;;;;;;;10.70;7.13;;;21.90;99.90;;;;;;5111577;28;20639;-45
2022/07/24 06:41:18;;;;;;;12.00;6.75;;;22.00;99.90;;;;;;5112010;28;20183;-49
2022/07/24 06:43:44;;;;;;;10.82;7.50;;;22.10;99.90;;;;;;5113120;28;20161;-54
2022/07/24 06:46:10;;;;;;;14.73;8.32;;;22.20;99.90;;;;;;5116495;28;20187;-48
2022/07/24 06:48:35;;;;;;;9.95;6.95;;;22.30;99.90;;;;;;5116221;28;20511;-50
2022/07/24 06:51:01;;;;;;;14.95;8.00;;;22.40;99.90;;;;;;5116272;28;20173;-53
2022/07/24 06:53:27;;;;;;;12.85;7.18;;;22.30;99.90;;;;;;5115878;28;20164;-53
2022/07/24 06:55:54;;;;;;;10.02;6.70;;;22.40;99.90;;;;;;5116328;28;20205;-53
2022/07/24 06:58:20;;;;;;;7.72;6.93;;;22.50;99.90;;;;;;5115878;28;20692;-51
2022/07/24 07:00:46;;;;;;;7.45;6.28;;;22.50;99.90;;;;;;5115919;28;20161;-54
2022/07/24 07:03:12;;;;;;;13.50;6.75;;;22.70;99.90;;;;;;5116250;28;20217;-53
2022/07/24 07:05:38;;;;;;;8.05;6.50;;;22.80;99.90;;;;;;5115627;28;20554;-51
2022/07/24 07:08:04;;;;;;;7.28;5.82;;;22.90;99.90;;;;;;5116084;28;20171;-52
2022/07/24 07:10:29;;;;;;;8.80;6.05;;;23.10;99.90;;;;;;5115594;28;20223;-50
2022/07/24 07:12:55;;;;;;;8.73;5.90;;;23.10;99.90;;;;;;5115692;28;20212;-55
2022/07/24 07:15:21;;;;;;;9.45;6.68;;;23.30;99.90;;;;;;5115774;28;20168;-55
2022/07/24 07:17:46;;;;;;;9.27;6.47;;;23.40;99.90;;;;;;5115736;28;20171;-43
2022/07/24 07:20:13;;;;;;;12.10;6.88;;;23.40;99.90;;;;;;5116145;28;20161;-46
2022/07/24 07:22:40;;;;;;;9.60;6.82;;;23.40;99.90;;;;;;5116538;28;20336;-45
2022/07/24 07:25:06;;;;;;;7.07;5.35;;;23.70;99.90;;;;;;5097394;28;20164;-45
2022/07/24 07:27:32;;;;;;;11.48;5.63;;;23.70;99.90;;;;;;5116052;28;20165;-46
2022/07/24 07:29:58;;;;;;;8.50;5.70;;;23.50;99.90;;;;;;5116357;28;20580;-52
2022/07/24 07:32:23;;;;;;;6.43;5.13;;;23.60;99.90;;;;;;5115342;28;20283;-46
2022/07/24 07:34:49;;;;;;;7.75;5.93;;;23.70;99.90;;;;;;5115079;28;20161;-44
2022/07/24 07:37:14;;;;;;;6.13;5.47;;;23.70;99.90;;;;;;5114992;28;20164;-53
2022/07/24 07:39:40;;;;;;;7.88;6.00;;;23.80;99.90;;;;;;5115816;28;20172;-45
2022/07/24 07:42:06;;;;;;;8.05;6.07;;;23.80;99.90;;;;;;5115915;28;20529;-43
2022/07/24 07:44:31;;;;;;;11.38;5.75;;;23.90;99.90;;;;;;5115816;28;20161;-43
2022/07/24 07:46:57;;;;;;;6.43;5.32;;;24.20;99.90;;;;;;5115063;28;20256;-43
2022/07/24 07:49:23;;;;;;;7.35;5.80;;;24.30;99.90;;;;;;5115256;28;20636;-44
2022/07/24 07:51:52;;;;;;;7.38;6.30;;;24.50;99.90;;;;;;5115144;28;20227;-46
2022/07/24 07:54:18;;;;;;;6.80;5.55;;;24.50;99.90;;;;;;5114776;28;20834;-49
2022/07/24 07:56:44;;;;;;;6.00;5.40;;;24.50;99.90;;;;;;5114397;28;20738;-44
2022/07/24 07:59:10;;;;;;;7.63;5.75;;;24.60;99.90;;;;;;5115050;28;20161;-43
2022/07/24 08:01:36;;;;;;;9.82;5.88;;;24.70;99.90;;;;;;5115382;28;20635;-46
2022/07/24 08:04:01;;;;;;;8.45;5.43;;;24.60;99.90;;;;;;5115837;28;20514;-49
2022/07/24 08:06:27;;;;;;;6.82;5.70;;;24.70;99.90;;;;;;5114747;28;20172;-46
2022/07/24 08:08:53;;;;;;;6.10;5.45;;;24.80;99.90;;;;;;5096892;28;20175;-45
2022/07/24 08:11:19;;;;;;;6.32;5.10;;;24.80;99.90;;;;;;5114555;28;20223;-45
2022/07/24 08:13:44;;;;;;;12.55;6.30;;;24.90;99.90;;;;;;5114778;28;20169;-44
2022/07/24 08:16:10;;;;;;;8.93;6.40;;;25.00;99.90;;;;;;5114732;28;20202;-44
2022/07/24 08:18:35;;;;;;;8.52;6.05;;;25.10;99.90;;;;;;5114630;28;20171;-43
2022/07/24 08:21:01;;;;;;;7.38;5.60;;;25.00;99.90;;;;;;5115140;28;20206;-44
2022/07/24 08:23:27;;;;;;;6.15;5.55;;;25.20;99.90;;;;;;5114889;28;20172;-44
2022/07/24 08:25:52;;;;;;;8.65;6.45;;;25.30;99.90;;;;;;5114557;28;20171;-43
2022/07/24 08:28:18;;;;;;;6.38;5.60;;;25.20;99.90;;;;;;5114466;28;20658;-45
2022/07/24 08:30:44;;;;;;;6.22;5.63;;;25.30;99.90;;;;;;5096335;28;20224;-44
2022/07/24 08:33:10;;;;;;;6.85;5.45;;;25.50;99.90;;;;;;5114143;28;20204;-43
2022/07/24 08:35:35;;;;;;;8.13;5.60;;;25.60;99.90;;;;;;5113702;28;20533;-43
2022/07/24 08:38:02;;;;;;;6.75;6.10;;;25.60;99.90;;;;;;5114422;28;20256;-43
2022/07/24 08:40:36;;;;;;;6.93;5.72;;;25.60;99.90;;;;;;5114463;28;20214;-43
2022/07/24 08:43:08;;;;;;;7.38;5.38;;;25.70;99.90;;;;;;5114390;28;20168;-45
2022/07/24 08:45:36;;;;;;;8.35;5.70;;;25.80;99.90;;;;;;5119733;27;20654;-46
2022/07/24 08:48:07;;;;;;;9.02;5.85;;;25.50;99.90;;;;;;5123026;27;20165;-45
2022/07/24 08:50:34;;;;;;;9.20;5.60;;;25.90;99.90;;;;;;5131151;27;20630;-45
2022/07/24 08:53:02;;;;;;;8.35;5.55;;;25.80;99.90;;;;;;5133936;27;20697;-44
2022/07/24 08:55:28;;;;;;;8.35;5.72;;;26.00;99.90;;;;;;5116061;27;20163;-45
2022/07/24 08:57:59;;;;;;;9.93;6.22;;;26.20;99.90;;;;;;5133920;27;20654;-47
2022/07/24 09:00:26;;;;;;;6.03;5.40;;;26.30;99.90;;;;;;5133851;27;20325;-44
2022/07/24 09:02:52;;;;;;;9.05;5.80;;;26.10;99.90;;;;;;5133571;27;20174;-45
2022/07/24 09:05:18;;;;;;;7.28;5.72;;;26.10;99.90;;;;;;5134271;27;20210;-44
2022/07/24 09:07:44;;;;;;;6.60;5.85;;;26.40;99.90;;;;;;5134251;27;20167;-44
2022/07/24 09:10:13;;;;;;;7.55;5.18;;;26.40;99.90;;;;;;5134039;27;20769;-44
2022/07/24 09:12:46;;;;;;;6.60;5.65;;;26.30;99.90;;;;;;5134084;27;20210;-43
2022/07/24 09:15:19;;;;;;;7.13;5.35;;;26.50;99.90;;;;;;5134105;27;20255;-43
2022/07/24 09:17:56;;;;;;;6.97;5.93;;;26.60;99.90;;;;;;5133947;27;20168;-44
2022/07/24 09:20:24;;;;;;;6.50;5.38;;;26.80;99.90;;;;;;5133949;27;20207;-45
2022/07/24 09:22:50;;;;;;;6.80;5.55;;;26.80;99.90;;;;;;5133943;27;20163;-44
2022/07/24 09:25:27;;;;;;;6.75;4.95;;;26.80;99.90;;;;;;5133817;27;20179;-54
2022/07/24 09:27:54;;;;;;;7.88;6.05;;;26.70;99.90;;;;;;5133773;27;20160;-55
2022/07/24 09:30:22;;;;;;;6.30;5.70;;;26.60;99.90;;;;;;5133777;27;20288;-53
2022/07/24 09:33:02;;;;;;;7.75;6.00;;;26.80;99.90;;;;;;5133718;27;20607;-55
2022/07/24 09:35:31;;;;;;;7.18;5.50;;;26.90;99.90;;;;;;5133653;27;20229;-53
2022/07/24 09:37:58;;;;;;;6.72;5.60;;;26.80;99.90;;;;;;5132372;27;20650;-52
2022/07/24 09:40:30;;;;;;;7.35;5.90;;;26.90;99.90;;;;;;5133622;27;20260;-54
2022/07/24 09:43:13;;;;;;;6.53;5.55;;;27.00;99.90;;;;;;5133410;27;20195;-55
2022/07/24 09:45:59;;;;;;;7.35;5.70;;;27.20;99.90;;;;;;5133117;27;20178;-50
2022/07/24 09:48:31;;;;;;;7.78;5.65;;;27.20;99.90;;;;;;5133015;27;20348;-45
2022/07/24 09:51:04;;;;;;;7.97;6.10;;;27.30;99.90;;;;;;5132655;27;20163;-51
2022/07/24 09:53:32;;;;;;;6.38;5.47;;;27.30;99.90;;;;;;5132879;27;20199;-45
2022/07/24 09:56:06;;;;;;;11.18;6.07;;;27.60;99.90;;;;;;5132821;27;20163;-49
2022/07/24 09:58:35;;;;;;;8.10;5.53;;;27.80;99.90;;;;;;5132994;27;20163;-51
2022/07/24 10:01:02;;;;;;;10.40;5.57;;;27.80;99.90;;;;;;5133033;27;20232;-48
2022/07/24 10:03:30;;;;;;;7.00;5.88;;;27.80;99.90;;;;;;5132491;27;20172;-55
2022/07/24 10:06:02;;;;;;;8.85;5.60;;;27.90;99.90;;;;;;5132735;27;20170;-51
2022/07/24 10:08:29;;;;;;;9.27;5.50;;;27.90;99.90;;;;;;5132016;27;20171;-55
2022/07/24 10:10:55;;;;;;;7.65;5.47;;;28.20;99.90;;;;;;5132727;27;20284;-54
2022/07/24 10:13:21;;;;;;;8.15;5.57;;;28.30;99.90;;;;;;5132471;27;20299;-55
2022/07/24 10:15:54;;;;;;;7.68;5.78;;;28.20;99.90;;;;;;5132545;27;20159;-53
2022/07/24 10:18:21;;;;;;;7.70;5.75;;;28.20;99.90;;;;;;5132215;27;20642;-55
2022/07/24 10:20:48;;;;;;;8.27;5.68;;;28.40;99.90;;;;;;5132327;27;20163;-55
2022/07/24 10:23:28;;;;;;;6.82;5.35;;;28.50;99.90;;;;;;5132704;27;20156;-56
2022/07/24 10:26:07;;;;;;;6.00;5.50;;;28.50;99.90;;;;;;5132833;27;20214;-56
2022/07/24 10:28:40;;;;;;;7.13;5.90;;;28.20;99.90;;;;;;5132894;28;20198;-53
2022/07/24 10:31:07;;;;;;;6.80;4.95;;;28.30;99.90;;;;;;5132431;27;20505;-55
2022/07/24 10:33:35;;;;;;;6.45;5.85;;;28.20;99.90;;;;;;5132950;27;20209;-46
2022/07/24 10:36:03;;;;;;;7.72;5.63;;;28.50;99.90;;;;;;5132377;27;20563;-54
2022/07/24 10:38:41;;;;;;;6.25;5.55;;;28.70;99.90;;;;;;5132539;27;20524;-52
2022/07/24 10:41:14;;;;;;;6.93;5.68;;;28.80;99.90;;;;;;5132515;27;20155;-55
2022/07/24 10:43:40;;;;;;;9.85;5.18;;;28.90;99.90;;;;;;5132247;27;20170;-49
2022/07/24 10:46:06;;;;;;;6.93;5.10;;;29.30;99.90;;;;;;5132222;27;20167;-45
2022/07/24 10:48:41;;;;;;;7.25;5.35;;;29.00;99.90;;;;;;5132550;27;20191;-49
2022/07/24 10:51:14;;;;;;;5.90;5.35;;;28.90;99.90;;;;;;5131808;27;20634;-53
2022/07/24 10:53:43;;;;;;;6.30;5.57;;;28.90;99.90;;;;;;5132024;27;20175;-56
2022/07/24 10:56:16;;;;;;;6.75;5.78;;;29.00;99.90;;;;;;5132085;28;20247;-56
2022/07/24 10:59:07;;;;;;;7.00;5.30;;;29.30;99.90;;;;;;5132381;27;20653;-55
2022/07/24 11:01:37;;;;;;;8.25;5.32;;;29.50;99.90;;;;;;5132650;28;20691;-47
2022/07/24 11:04:24;;;;;;;6.82;5.53;;;29.60;99.90;;;;;;5132528;27;20220;-54
2022/07/24 11:07:07;;;;;;;5.78;5.22;;;29.70;99.90;;;;;;5131996;27;20155;-54
2022/07/24 11:10:00;;;;;;;6.85;4.88;;;29.30;99.90;;;;;;5132295;27;20179;-54
2022/07/24 11:12:28;;;;;;;7.95;5.57;;;29.30;99.90;;;;;;5133144;27;20298;-53
2022/07/24 11:15:53;;;;;;;7.18;5.55;;;29.30;99.90;;;;;;5132404;27;20202;-55
2022/07/24 11:17:46;;;;;;;7.93;6.30;;;29.40;99.90;;;;;;5132076;27;20176;-55
2022/07/24 11:20:21;;;;;;;10.93;5.65;;;29.60;99.90;;;;;;5132150;27;20164;-54
2022/07/24 11:22:53;;;;;;;8.25;5.72;;;30.00;99.90;;;;;;5132188;27;20178;-52
2022/07/24 11:25:22;;;;;;;7.70;6.28;;;29.80;99.90;;;;;;5131976;27;20193;-48
2022/07/24 11:27:52;;;;;;;6.20;5.60;;;29.90;99.90;;;;;;5132397;27;20167;-46
2022/07/24 11:30:19;;;;;;;7.80;5.68;;;30.10;99.90;;;;;;5132450;27;20183;-47
2022/07/24 11:32:46;;;;;;;8.73;5.78;;;30.20;99.90;;;;;;5135495;27;20245;-52
2022/07/24 11:35:12;;;;;;;6.82;5.30;;;30.20;99.90;;;;;;5135515;27;20219;-50
2022/07/24 11:37:41;;;;;;;6.68;4.97;;;30.50;99.90;;;;;;5135831;27;20252;-48
2022/07/24 11:40:08;;;;;;;6.82;5.85;;;30.60;99.90;;;;;;5135756;27;20182;-47
2022/07/24 11:42:35;;;;;;;6.50;5.32;;;30.60;99.90;;;;;;5135988;27;20164;-48
2022/07/24 11:45:01;;;;;;;9.80;5.88;;;30.60;99.90;;;;;;5132383;27;20586;-50
2022/07/24 11:47:27;;;;;;;8.02;5.80;;;30.40;99.90;;;;;;5135328;27;20517;-50
2022/07/24 11:49:55;;;;;;;7.00;5.00;;;30.70;99.90;;;;;;5135207;27;20167;-48
2022/07/24 11:52:25;;;;;;;5.97;5.32;;;30.40;99.90;;;;;;5135298;27;20520;-49
2022/07/24 11:54:53;;;;;;;9.10;5.72;;;30.60;99.90;;;;;;5135200;27;20159;-53
2022/07/24 11:57:22;;;;;;;7.22;5.43;;;30.80;99.90;;;;;;5135112;27;20251;-52
2022/07/24 11:59:49;;;;;;;7.03;5.25;;;30.60;99.90;;;;;;5135364;27;20164;-53
2022/07/24 12:02:15;;;;;;;7.45;5.50;;;30.80;99.90;;;;;;5135573;27;20155;-48
2022/07/24 12:04:42;;;;;;;9.23;5.70;;;30.90;99.90;;;;;;5135669;27;20167;-47
2022/07/24 12:07:11;;;;;;;5.90;5.32;;;31.00;99.90;;;;;;5135276;27;20586;-47
2022/07/24 12:09:57;;;;;;;6.07;5.32;;;31.10;99.90;;;;;;5116749;27;20254;-48
2022/07/24 12:12:32;;;;;;;5.97;5.38;;;31.20;99.90;;;;;;5135278;27;20206;-49
2022/07/24 12:15:04;;;;;;;10.75;6.13;;;31.00;99.90;;;;;;5135270;27;20162;-52
2022/07/24 12:17:32;;;;;;;6.70;5.20;;;31.20;99.90;;;;;;5135528;27;20618;-51
2022/07/24 12:19:59;;;;;;;6.90;5.55;;;31.10;99.90;;;;;;5134705;27;20232;-53
2022/07/24 12:22:26;;;;;;;9.40;5.90;;;31.30;99.90;;;;;;5134805;27;20163;-47
2022/07/24 12:24:54;;;;;;;5.78;5.18;;;31.40;99.90;;;;;;5134700;27;20191;-47
2022/07/24 12:27:41;;;;;;;9.82;5.63;;;31.50;99.90;;;;;;5134822;27;20191;-51
2022/07/24 12:30:19;;;;;;;7.68;5.28;;;31.20;99.90;;;;;;5132220;27;20167;-45
2022/07/24 12:32:54;;;;;;;7.15;5.70;;;30.90;99.90;;;;;;5113597;28;20206;-45
2022/07/24 12:35:20;;;;;;;6.38;5.43;;;31.00;99.90;;;;;;5125423;27;20176;-45
2022/07/24 12:37:46;;;;;;;6.88;5.38;;;31.00;99.90;;;;;;5120259;27;20318;-46
2022/07/24 12:40:36;;;;;;;6.13;5.53;;;31.10;99.90;;;;;;5122606;27;20220;-45
2022/07/24 12:43:09;;;;;;;5.35;4.85;;;31.30;99.90;;;;;;5130167;27;20183;-45
2022/07/24 12:45:35;;;;;;;6.38;5.10;;;31.40;99.90;;;;;;5120819;27;20180;-51
2022/07/24 12:48:21;;;;;;;7.00;5.43;;;31.00;99.10;;;;;;5133000;27;20168;-45